sensor_id;sensor_type;location;lat;lon;timestamp;temperature;humidity
19908;DHT22;10116;53.112;7.356;2023-02-18T00:01:55;23.60;56.20
19908;DHT22;10116;53.112;7.356;2023-02-18T00:04:20;23.70;56.40
19908;DHT22;10116;53.112;7.356;2023-02-18T00:06:46;23.70;55.70
19908;DHT22;10116;53.112;7.356;2023-02-18T00:09:12;23.60;55.80
19908;DHT22;10116;53.112;7.356;2023-02-18T00:11:38;23.60;56.20
19908;DHT22;10116;53.112;7.356;2023-02-18T00:14:09;23.60;56.10
19908;DHT22;10116;53.112;7.356;2023-02-18T00:16:35;23.60;55.40
19908;DHT22;10116;53.112;7.356;2023-02-18T00:19:04;23.60;55.40
19908;DHT22;10116;53.112;7.356;2023-02-18T00:21:31;23.60;55.50
19908;DHT22;10116;53.112;7.356;2023-02-18T00:23:57;23.60;55.50
19908;DHT22;10116;53.112;7.356;2023-02-18T00:26:23;23.60;55.70
19908;DHT22;10116;53.112;7.356;2023-02-18T00:28:49;23.60;55.20
19908;DHT22;10116;53.112;7.356;2023-02-18T00:31:28;23.60;56.20
19908;DHT22;10116;53.112;7.356;2023-02-18T00:33:54;23.60;56.70
19908;DHT22;10116;53.112;7.356;2023-02-18T00:36:21;23.60;55.70
19908;DHT22;10116;53.112;7.356;2023-02-18T00:38:53;23.60;55.30
19908;DHT22;10116;53.112;7.356;2023-02-18T00:41:20;23.60;55.90
19908;DHT22;10116;53.112;7.356;2023-02-18T00:43:46;23.60;55.40
19908;DHT22;10116;53.112;7.356;2023-02-18T00:46:12;23.60;55.60
19908;DHT22;10116;53.112;7.356;2023-02-18T00:48:38;23.60;55.40
19908;DHT22;10116;53.112;7.356;2023-02-18T00:51:05;23.60;55.40
19908;DHT22;10116;53.112;7.356;2023-02-18T00:53:31;23.60;55.50
19908;DHT22;10116;53.112;7.356;2023-02-18T00:55:57;23.60;55.20
19908;DHT22;10116;53.112;7.356;2023-02-18T00:58:23;23.60;55.60
19908;DHT22;10116;53.112;7.356;2023-02-18T01:00:48;23.60;55.50
19908;DHT22;10116;53.112;7.356;2023-02-18T01:03:14;23.60;55.40
19908;DHT22;10116;53.112;7.356;2023-02-18T01:05:40;23.60;56.50
19908;DHT22;10116;53.112;7.356;2023-02-18T01:08:08;23.60;55.30
19908;DHT22;10116;53.112;7.356;2023-02-18T01:10:34;23.60;55.20
19908;DHT22;10116;53.112;7.356;2023-02-18T01:13:00;23.60;55.40
19908;DHT22;10116;53.112;7.356;2023-02-18T01:15:28;23.60;54.90
19908;DHT22;10116;53.112;7.356;2023-02-18T01:17:54;23.60;54.80
19908;DHT22;10116;53.112;7.356;2023-02-18T01:20:20;23.60;55.60
19908;DHT22;10116;53.112;7.356;2023-02-18T01:22:46;23.60;55.70
19908;DHT22;10116;53.112;7.356;2023-02-18T01:25:12;23.60;55.00
19908;DHT22;10116;53.112;7.356;2023-02-18T01:27:37;23.60;55.60
19908;DHT22;10116;53.112;7.356;2023-02-18T01:30:04;23.60;55.00
19908;DHT22;10116;53.112;7.356;2023-02-18T01:32:30;23.60;54.80
19908;DHT22;10116;53.112;7.356;2023-02-18T01:34:56;23.60;54.80
19908;DHT22;10116;53.112;7.356;2023-02-18T01:37:22;23.60;55.50
19908;DHT22;10116;53.112;7.356;2023-02-18T01:39:47;23.60;55.30
19908;DHT22;10116;53.112;7.356;2023-02-18T01:42:22;23.60;54.60
19908;DHT22;10116;53.112;7.356;2023-02-18T01:44:48;23.60;54.70
19908;DHT22;10116;53.112;7.356;2023-02-18T01:47:15;23.60;54.50
19908;DHT22;10116;53.112;7.356;2023-02-18T01:49:42;23.60;54.50
19908;DHT22;10116;53.112;7.356;2023-02-18T01:52:22;23.60;54.40
19908;DHT22;10116;53.112;7.356;2023-02-18T01:54:51;23.60;54.40
19908;DHT22;10116;53.112;7.356;2023-02-18T01:57:28;23.60;54.40
19908;DHT22;10116;53.112;7.356;2023-02-18T01:59:59;23.60;54.50
19908;DHT22;10116;53.112;7.356;2023-02-18T02:02:29;23.60;54.90
19908;DHT22;10116;53.112;7.356;2023-02-18T02:04:56;23.60;54.30
19908;DHT22;10116;53.112;7.356;2023-02-18T02:07:23;23.60;55.00
19908;DHT22;10116;53.112;7.356;2023-02-18T02:09:51;23.60;54.10
19908;DHT22;10116;53.112;7.356;2023-02-18T02:43:12;23.50;53.80
19908;DHT22;10116;53.112;7.356;2023-02-18T02:53:20;23.50;54.30
19908;DHT22;10116;53.112;7.356;2023-02-18T02:55:47;23.50;53.60
19908;DHT22;10116;53.112;7.356;2023-02-18T02:58:17;23.50;53.40
19908;DHT22;10116;53.112;7.356;2023-02-18T03:00:54;23.50;53.60
19908;DHT22;10116;53.112;7.356;2023-02-18T03:09:27;23.50;53.50
19908;DHT22;10116;53.112;7.356;2023-02-18T03:15:00;23.50;53.20
19908;DHT22;10116;53.112;7.356;2023-02-18T03:17:57;23.50;53.40
19908;DHT22;10116;53.112;7.356;2023-02-18T03:20:30;23.50;53.20
19908;DHT22;10116;53.112;7.356;2023-02-18T03:23:01;23.50;53.70
19908;DHT22;10116;53.112;7.356;2023-02-18T03:25:30;23.50;52.80
19908;DHT22;10116;53.112;7.356;2023-02-18T03:28:07;23.50;53.30
19908;DHT22;10116;53.112;7.356;2023-02-18T03:30:51;23.50;53.60
19908;DHT22;10116;53.112;7.356;2023-02-18T03:33:29;23.50;52.90
19908;DHT22;10116;53.112;7.356;2023-02-18T03:35:56;23.50;53.00
19908;DHT22;10116;53.112;7.356;2023-02-18T03:41:09;23.50;53.00
19908;DHT22;10116;53.112;7.356;2023-02-18T03:43:35;23.50;53.30
19908;DHT22;10116;53.112;7.356;2023-02-18T03:46:01;23.50;53.40
19908;DHT22;10116;53.112;7.356;2023-02-18T03:48:27;23.50;52.60
19908;DHT22;10116;53.112;7.356;2023-02-18T03:50:53;23.50;53.00
19908;DHT22;10116;53.112;7.356;2023-02-18T03:53:18;23.50;53.30
19908;DHT22;10116;53.112;7.356;2023-02-18T03:55:44;23.50;53.40
19908;DHT22;10116;53.112;7.356;2023-02-18T03:58:10;23.50;52.60
19908;DHT22;10116;53.112;7.356;2023-02-18T04:00:35;23.50;52.60
19908;DHT22;10116;53.112;7.356;2023-02-18T04:03:01;23.50;52.80
19908;DHT22;10116;53.112;7.356;2023-02-18T04:05:27;23.50;52.60
19908;DHT22;10116;53.112;7.356;2023-02-18T04:07:53;23.50;52.40
19908;DHT22;10116;53.112;7.356;2023-02-18T04:10:19;23.50;52.90
19908;DHT22;10116;53.112;7.356;2023-02-18T04:12:45;23.50;52.40
19908;DHT22;10116;53.112;7.356;2023-02-18T04:15:11;23.50;53.00
19908;DHT22;10116;53.112;7.356;2023-02-18T04:17:38;23.50;52.70
19908;DHT22;10116;53.112;7.356;2023-02-18T04:20:04;23.50;52.90
19908;DHT22;10116;53.112;7.356;2023-02-18T04:22:30;23.50;53.00
19908;DHT22;10116;53.112;7.356;2023-02-18T04:24:56;23.50;53.40
19908;DHT22;10116;53.112;7.356;2023-02-18T04:27:21;23.50;52.80
19908;DHT22;10116;53.112;7.356;2023-02-18T04:29:47;23.50;52.80
19908;DHT22;10116;53.112;7.356;2023-02-18T04:32:13;23.60;53.80
19908;DHT22;10116;53.112;7.356;2023-02-18T04:34:38;23.70;54.50
19908;DHT22;10116;53.112;7.356;2023-02-18T04:37:04;23.70;55.10
19908;DHT22;10116;53.112;7.356;2023-02-18T04:39:29;23.80;56.50
19908;DHT22;10116;53.112;7.356;2023-02-18T04:41:55;23.80;56.80
19908;DHT22;10116;53.112;7.356;2023-02-18T04:44:21;23.90;57.10
19908;DHT22;10116;53.112;7.356;2023-02-18T04:46:46;23.90;56.80
19908;DHT22;10116;53.112;7.356;2023-02-18T04:49:12;23.90;57.00
19908;DHT22;10116;53.112;7.356;2023-02-18T04:51:37;23.90;57.80
19908;DHT22;10116;53.112;7.356;2023-02-18T04:54:03;24.00;58.40
19908;DHT22;10116;53.112;7.356;2023-02-18T04:56:29;23.90;57.50
19908;DHT22;10116;53.112;7.356;2023-02-18T04:58:55;23.90;57.50
19908;DHT22;10116;53.112;7.356;2023-02-18T05:01:20;24.00;57.80
19908;DHT22;10116;53.112;7.356;2023-02-18T05:03:46;24.00;57.60
19908;DHT22;10116;53.112;7.356;2023-02-18T05:06:12;24.00;57.90
19908;DHT22;10116;53.112;7.356;2023-02-18T05:08:37;24.00;57.80
19908;DHT22;10116;53.112;7.356;2023-02-18T05:11:07;24.00;57.40
19908;DHT22;10116;53.112;7.356;2023-02-18T05:13:33;24.00;57.50
19908;DHT22;10116;53.112;7.356;2023-02-18T05:15:59;24.00;56.90
19908;DHT22;10116;53.112;7.356;2023-02-18T05:18:25;24.00;58.10
19908;DHT22;10116;53.112;7.356;2023-02-18T05:20:50;24.00;57.20
19908;DHT22;10116;53.112;7.356;2023-02-18T05:23:16;24.00;56.90
19908;DHT22;10116;53.112;7.356;2023-02-18T05:25:44;24.00;57.20
19908;DHT22;10116;53.112;7.356;2023-02-18T05:28:10;24.00;56.70
19908;DHT22;10116;53.112;7.356;2023-02-18T05:30:35;23.90;56.50
19908;DHT22;10116;53.112;7.356;2023-02-18T05:33:01;24.00;56.50
19908;DHT22;10116;53.112;7.356;2023-02-18T05:35:27;23.90;56.40
19908;DHT22;10116;53.112;7.356;2023-02-18T05:37:52;24.00;56.60
19908;DHT22;10116;53.112;7.356;2023-02-18T05:40:18;24.00;57.00
19908;DHT22;10116;53.112;7.356;2023-02-18T05:42:43;24.00;57.70
19908;DHT22;10116;53.112;7.356;2023-02-18T05:45:09;24.10;58.30
19908;DHT22;10116;53.112;7.356;2023-02-18T05:47:35;24.10;58.20
19908;DHT22;10116;53.112;7.356;2023-02-18T05:50:01;24.10;58.80
19908;DHT22;10116;53.112;7.356;2023-02-18T05:52:26;24.20;58.40
19908;DHT22;10116;53.112;7.356;2023-02-18T05:54:52;24.20;58.30
19908;DHT22;10116;53.112;7.356;2023-02-18T05:57:18;24.20;58.90
19908;DHT22;10116;53.112;7.356;2023-02-18T05:59:43;24.20;58.30
19908;DHT22;10116;53.112;7.356;2023-02-18T06:02:09;24.20;58.80
19908;DHT22;10116;53.112;7.356;2023-02-18T06:04:35;24.20;58.60
19908;DHT22;10116;53.112;7.356;2023-02-18T06:07:01;24.20;58.30
19908;DHT22;10116;53.112;7.356;2023-02-18T06:09:26;24.20;58.00
19908;DHT22;10116;53.112;7.356;2023-02-18T06:11:52;24.20;58.70
19908;DHT22;10116;53.112;7.356;2023-02-18T06:14:18;24.20;58.80
19908;DHT22;10116;53.112;7.356;2023-02-18T06:16:44;24.20;57.60
19908;DHT22;10116;53.112;7.356;2023-02-18T06:19:09;24.10;57.20
19908;DHT22;10116;53.112;7.356;2023-02-18T06:21:35;24.20;57.90
19908;DHT22;10116;53.112;7.356;2023-02-18T06:24:00;24.10;58.00
19908;DHT22;10116;53.112;7.356;2023-02-18T06:26:26;24.10;58.00
19908;DHT22;10116;53.112;7.356;2023-02-18T06:28:52;24.10;57.80
19908;DHT22;10116;53.112;7.356;2023-02-18T06:31:17;24.10;57.60
19908;DHT22;10116;53.112;7.356;2023-02-18T06:33:43;24.10;57.20
19908;DHT22;10116;53.112;7.356;2023-02-18T06:36:10;24.10;58.40
19908;DHT22;10116;53.112;7.356;2023-02-18T06:38:40;24.10;57.60
19908;DHT22;10116;53.112;7.356;2023-02-18T06:41:07;24.10;56.70
19908;DHT22;10116;53.112;7.356;2023-02-18T06:43:33;24.00;56.80
19908;DHT22;10116;53.112;7.356;2023-02-18T06:45:58;24.10;56.90
19908;DHT22;10116;53.112;7.356;2023-02-18T06:48:24;24.10;57.60
19908;DHT22;10116;53.112;7.356;2023-02-18T06:50:50;24.10;57.80
19908;DHT22;10116;53.112;7.356;2023-02-18T06:53:15;24.10;58.10
19908;DHT22;10116;53.112;7.356;2023-02-18T06:55:44;24.20;58.80
19908;DHT22;10116;53.112;7.356;2023-02-18T06:58:11;24.20;58.40
19908;DHT22;10116;53.112;7.356;2023-02-18T07:00:37;24.20;58.70
19908;DHT22;10116;53.112;7.356;2023-02-18T07:03:03;24.30;58.60
19908;DHT22;10116;53.112;7.356;2023-02-18T07:05:29;24.30;59.30
19908;DHT22;10116;53.112;7.356;2023-02-18T07:07:55;24.30;60.00
19908;DHT22;10116;53.112;7.356;2023-02-18T07:10:21;24.30;59.70
19908;DHT22;10116;53.112;7.356;2023-02-18T07:12:46;24.30;59.10
19908;DHT22;10116;53.112;7.356;2023-02-18T07:15:12;24.30;58.40
19908;DHT22;10116;53.112;7.356;2023-02-18T07:17:38;24.30;58.40
19908;DHT22;10116;53.112;7.356;2023-02-18T07:20:04;24.30;58.30
19908;DHT22;10116;53.112;7.356;2023-02-18T07:22:30;24.30;58.40
19908;DHT22;10116;53.112;7.356;2023-02-18T07:24:55;24.20;58.10
19908;DHT22;10116;53.112;7.356;2023-02-18T07:27:21;24.20;57.70
19908;DHT22;10116;53.112;7.356;2023-02-18T07:29:47;24.20;57.60
19908;DHT22;10116;53.112;7.356;2023-02-18T07:32:15;24.20;57.10
19908;DHT22;10116;53.112;7.356;2023-02-18T07:34:42;24.10;57.10
19908;DHT22;10116;53.112;7.356;2023-02-18T07:37:07;24.10;56.50
19908;DHT22;10116;53.112;7.356;2023-02-18T07:39:40;24.10;56.30
19908;DHT22;10116;53.112;7.356;2023-02-18T07:42:07;24.00;56.30
19908;DHT22;10116;53.112;7.356;2023-02-18T07:44:33;24.00;56.50
19908;DHT22;10116;53.112;7.356;2023-02-18T07:46:58;24.00;55.70
19908;DHT22;10116;53.112;7.356;2023-02-18T07:49:24;24.00;55.80
19908;DHT22;10116;53.112;7.356;2023-02-18T07:51:50;23.90;55.80
19908;DHT22;10116;53.112;7.356;2023-02-18T07:54:16;23.90;56.50
19908;DHT22;10116;53.112;7.356;2023-02-18T07:56:42;23.90;56.80
19908;DHT22;10116;53.112;7.356;2023-02-18T07:59:08;24.00;56.90
19908;DHT22;10116;53.112;7.356;2023-02-18T08:01:34;24.00;57.40
19908;DHT22;10116;53.112;7.356;2023-02-18T08:04:00;24.00;57.80
19908;DHT22;10116;53.112;7.356;2023-02-18T08:06:50;24.00;58.60
19908;DHT22;10116;53.112;7.356;2023-02-18T08:09:16;24.10;58.60
19908;DHT22;10116;53.112;7.356;2023-02-18T08:11:42;24.10;59.20
19908;DHT22;10116;53.112;7.356;2023-02-18T08:14:08;24.00;57.90
19908;DHT22;10116;53.112;7.356;2023-02-18T08:16:33;24.00;57.80
19908;DHT22;10116;53.112;7.356;2023-02-18T08:19:00;23.90;57.80
19908;DHT22;10116;53.112;7.356;2023-02-18T08:21:27;23.90;57.80
19908;DHT22;10116;53.112;7.356;2023-02-18T08:23:53;23.90;57.30
19908;DHT22;10116;53.112;7.356;2023-02-18T08:26:19;23.80;56.90
19908;DHT22;10116;53.112;7.356;2023-02-18T08:28:46;23.80;57.00
19908;DHT22;10116;53.112;7.356;2023-02-18T08:31:24;23.80;57.10
19908;DHT22;10116;53.112;7.356;2023-02-18T08:33:51;23.70;56.80
19908;DHT22;10116;53.112;7.356;2023-02-18T08:36:17;23.70;55.90
19908;DHT22;10116;53.112;7.356;2023-02-18T08:38:43;23.70;56.40
19908;DHT22;10116;53.112;7.356;2023-02-18T08:41:09;23.60;56.70
19908;DHT22;10116;53.112;7.356;2023-02-18T08:43:34;23.60;56.70
19908;DHT22;10116;53.112;7.356;2023-02-18T08:46:01;23.60;57.00
19908;DHT22;10116;53.112;7.356;2023-02-18T08:48:27;23.60;56.90
19908;DHT22;10116;53.112;7.356;2023-02-18T08:50:53;23.50;56.50
19908;DHT22;10116;53.112;7.356;2023-02-18T08:53:19;23.50;56.90
19908;DHT22;10116;53.112;7.356;2023-02-18T08:55:45;23.60;57.30
19908;DHT22;10116;53.112;7.356;2023-02-18T08:58:11;23.60;58.00
19908;DHT22;10116;53.112;7.356;2023-02-18T09:00:38;23.60;58.70
19908;DHT22;10116;53.112;7.356;2023-02-18T09:03:04;23.70;59.00
19908;DHT22;10116;53.112;7.356;2023-02-18T09:05:29;23.70;59.00
19908;DHT22;10116;53.112;7.356;2023-02-18T09:07:55;23.70;59.40
19908;DHT22;10116;53.112;7.356;2023-02-18T09:10:21;23.70;59.70
19908;DHT22;10116;53.112;7.356;2023-02-18T09:12:47;23.70;59.60
19908;DHT22;10116;53.112;7.356;2023-02-18T09:15:13;23.70;59.90
19908;DHT22;10116;53.112;7.356;2023-02-18T09:17:38;23.60;59.70
19908;DHT22;10116;53.112;7.356;2023-02-18T09:20:04;23.70;61.30
19908;DHT22;10116;53.112;7.356;2023-02-18T09:22:30;23.60;61.00
19908;DHT22;10116;53.112;7.356;2023-02-18T09:24:57;23.60;61.10
19908;DHT22;10116;53.112;7.356;2023-02-18T09:27:23;23.60;60.80
19908;DHT22;10116;53.112;7.356;2023-02-18T09:29:49;23.60;61.50
19908;DHT22;10116;53.112;7.356;2023-02-18T09:32:15;23.60;61.10
19908;DHT22;10116;53.112;7.356;2023-02-18T09:34:42;23.60;62.10
19908;DHT22;10116;53.112;7.356;2023-02-18T09:37:08;23.60;63.00
19908;DHT22;10116;53.112;7.356;2023-02-18T09:39:34;23.60;62.20
19908;DHT22;10116;53.112;7.356;2023-02-18T09:42:03;23.60;62.10
19908;DHT22;10116;53.112;7.356;2023-02-18T09:44:42;23.60;63.40
19908;DHT22;10116;53.112;7.356;2023-02-18T09:47:20;23.60;61.70
19908;DHT22;10116;53.112;7.356;2023-02-18T09:49:53;23.60;62.30
19908;DHT22;10116;53.112;7.356;2023-02-18T09:52:27;23.50;62.40
19908;DHT22;10116;53.112;7.356;2023-02-18T09:54:54;23.50;61.50
19908;DHT22;10116;53.112;7.356;2023-02-18T09:57:53;23.50;61.60
19908;DHT22;10116;53.112;7.356;2023-02-18T10:00:38;23.50;61.70
19908;DHT22;10116;53.112;7.356;2023-02-18T10:03:12;23.50;62.10
19908;DHT22;10116;53.112;7.356;2023-02-18T10:06:24;23.50;61.90
19908;DHT22;10116;53.112;7.356;2023-02-18T10:08:37;23.50;63.50
19908;DHT22;10116;53.112;7.356;2023-02-18T10:11:11;23.40;62.10
19908;DHT22;10116;53.112;7.356;2023-02-18T10:13:41;23.40;61.40
19908;DHT22;10116;53.112;7.356;2023-02-18T10:16:08;23.40;61.70
19908;DHT22;10116;53.112;7.356;2023-02-18T10:18:43;23.40;62.20
19908;DHT22;10116;53.112;7.356;2023-02-18T10:21:19;23.40;62.20
19908;DHT22;10116;53.112;7.356;2023-02-18T10:26:29;23.40;62.20
19908;DHT22;10116;53.112;7.356;2023-02-18T10:28:56;23.40;62.60
19908;DHT22;10116;53.112;7.356;2023-02-18T10:31:30;23.40;62.30
19908;DHT22;10116;53.112;7.356;2023-02-18T10:50:40;23.30;63.50
19908;DHT22;10116;53.112;7.356;2023-02-18T10:53:37;23.30;63.40
19908;DHT22;10116;53.112;7.356;2023-02-18T10:56:06;23.30;64.10
19908;DHT22;10116;53.112;7.356;2023-02-18T10:58:35;23.30;63.80
19908;DHT22;10116;53.112;7.356;2023-02-18T11:01:04;23.30;64.30
19908;DHT22;10116;53.112;7.356;2023-02-18T11:03:51;23.30;64.10
19908;DHT22;10116;53.112;7.356;2023-02-18T11:06:39;23.30;65.90
19908;DHT22;10116;53.112;7.356;2023-02-18T11:09:12;23.30;65.30
19908;DHT22;10116;53.112;7.356;2023-02-18T11:11:44;23.40;66.10
19908;DHT22;10116;53.112;7.356;2023-02-18T11:14:12;23.40;67.30
19908;DHT22;10116;53.112;7.356;2023-02-18T11:16:43;23.50;67.40
19908;DHT22;10116;53.112;7.356;2023-02-18T11:19:31;23.50;68.30
19908;DHT22;10116;53.112;7.356;2023-02-18T11:22:24;23.50;68.80
19908;DHT22;10116;53.112;7.356;2023-02-18T11:24:54;23.50;68.80
19908;DHT22;10116;53.112;7.356;2023-02-18T11:27:43;23.60;70.30
19908;DHT22;10116;53.112;7.356;2023-02-18T11:30:20;23.60;70.60
19908;DHT22;10116;53.112;7.356;2023-02-18T11:32:48;23.50;69.70
19908;DHT22;10116;53.112;7.356;2023-02-18T11:35:24;23.50;69.50
19908;DHT22;10116;53.112;7.356;2023-02-18T11:37:50;23.50;70.90
19908;DHT22;10116;53.112;7.356;2023-02-18T11:40:27;23.50;69.40
19908;DHT22;10116;53.112;7.356;2023-02-18T11:45:31;23.40;67.70
19908;DHT22;10116;53.112;7.356;2023-02-18T11:50:39;23.40;67.80
19908;DHT22;10116;53.112;7.356;2023-02-18T11:53:31;23.30;68.00
19908;DHT22;10116;53.112;7.356;2023-02-18T11:55:59;23.30;66.40
19908;DHT22;10116;53.112;7.356;2023-02-18T11:58:27;23.30;67.10
19908;DHT22;10116;53.112;7.356;2023-02-18T12:00:58;23.40;68.60
19908;DHT22;10116;53.112;7.356;2023-02-18T12:03:53;23.40;68.00
19908;DHT22;10116;53.112;7.356;2023-02-18T12:06:28;23.40;69.00
19908;DHT22;10116;53.112;7.356;2023-02-18T12:09:14;23.40;70.10
19908;DHT22;10116;53.112;7.356;2023-02-18T12:11:47;23.40;70.60
19908;DHT22;10116;53.112;7.356;2023-02-18T12:14:17;23.40;69.60
19908;DHT22;10116;53.112;7.356;2023-02-18T12:22:29;23.40;70.50
19908;DHT22;10116;53.112;7.356;2023-02-18T12:28:12;23.40;70.10
19908;DHT22;10116;53.112;7.356;2023-02-18T12:30:43;23.40;70.80
19908;DHT22;10116;53.112;7.356;2023-02-18T12:36:06;23.40;70.00
19908;DHT22;10116;53.112;7.356;2023-02-18T12:39:01;23.40;70.00
19908;DHT22;10116;53.112;7.356;2023-02-18T12:42:01;23.40;70.50
19908;DHT22;10116;53.112;7.356;2023-02-18T13:01:31;23.40;70.00
19908;DHT22;10116;53.112;7.356;2023-02-18T13:12:08;23.40;82.70
19908;DHT22;10116;53.112;7.356;2023-02-18T13:14:45;23.50;72.30
19908;DHT22;10116;53.112;7.356;2023-02-18T13:17:15;23.50;72.60
19908;DHT22;10116;53.112;7.356;2023-02-18T13:19:56;23.60;73.40
19908;DHT22;10116;53.112;7.356;2023-02-18T13:22:24;23.60;73.30
19908;DHT22;10116;53.112;7.356;2023-02-18T13:24:53;23.60;73.60
19908;DHT22;10116;53.112;7.356;2023-02-18T13:27:30;23.60;74.10
19908;DHT22;10116;53.112;7.356;2023-02-18T13:30:18;23.60;73.70
19908;DHT22;10116;53.112;7.356;2023-02-18T13:36:12;23.60;74.50
19908;DHT22;10116;53.112;7.356;2023-02-18T13:38:59;23.60;73.40
19908;DHT22;10116;53.112;7.356;2023-02-18T13:41:27;23.60;73.70
19908;DHT22;10116;53.112;7.356;2023-02-18T13:43:53;23.60;73.50
19908;DHT22;10116;53.112;7.356;2023-02-18T13:46:23;23.60;73.60
19908;DHT22;10116;53.112;7.356;2023-02-18T13:48:52;23.60;74.20
19908;DHT22;10116;53.112;7.356;2023-02-18T13:51:40;23.60;74.40
19908;DHT22;10116;53.112;7.356;2023-02-18T13:56:51;23.60;73.10
19908;DHT22;10116;53.112;7.356;2023-02-18T14:09:58;23.60;73.00
19908;DHT22;10116;53.112;7.356;2023-02-18T14:26:04;23.70;74.40
19908;DHT22;10116;53.112;7.356;2023-02-18T14:33:34;23.70;74.90
19908;DHT22;10116;53.112;7.356;2023-02-18T14:36:18;23.80;75.40
19908;DHT22;10116;53.112;7.356;2023-02-18T14:39:00;23.80;75.70
19908;DHT22;10116;53.112;7.356;2023-02-18T14:49:35;23.80;75.40
19908;DHT22;10116;53.112;7.356;2023-02-18T14:52:04;23.80;75.90
19908;DHT22;10116;53.112;7.356;2023-02-18T14:54:30;23.80;75.00
19908;DHT22;10116;53.112;7.356;2023-02-18T14:56:59;23.80;75.40
19908;DHT22;10116;53.112;7.356;2023-02-18T14:59:30;23.80;75.70
19908;DHT22;10116;53.112;7.356;2023-02-18T15:01:58;23.80;75.50
19908;DHT22;10116;53.112;7.356;2023-02-18T15:04:25;23.80;75.00
19908;DHT22;10116;53.112;7.356;2023-02-18T15:07:07;23.80;74.80
19908;DHT22;10116;53.112;7.356;2023-02-18T15:09:33;23.80;74.40
19908;DHT22;10116;53.112;7.356;2023-02-18T15:12:02;23.80;74.80
19908;DHT22;10116;53.112;7.356;2023-02-18T15:14:41;23.70;74.20
19908;DHT22;10116;53.112;7.356;2023-02-18T15:17:14;23.70;74.80
19908;DHT22;10116;53.112;7.356;2023-02-18T15:19:43;23.70;75.10
19908;DHT22;10116;53.112;7.356;2023-02-18T15:22:25;23.70;74.70
19908;DHT22;10116;53.112;7.356;2023-02-18T15:24:55;23.80;74.40
19908;DHT22;10116;53.112;7.356;2023-02-18T15:27:28;23.80;74.30
19908;DHT22;10116;53.112;7.356;2023-02-18T15:30:19;23.70;74.50
19908;DHT22;10116;53.112;7.356;2023-02-18T15:32:55;23.70;74.50
19908;DHT22;10116;53.112;7.356;2023-02-18T15:35:22;23.70;74.00
19908;DHT22;10116;53.112;7.356;2023-02-18T15:37:55;23.70;74.00
19908;DHT22;10116;53.112;7.356;2023-02-18T15:40:28;23.70;73.70
19908;DHT22;10116;53.112;7.356;2023-02-18T15:42:58;23.70;73.70
19908;DHT22;10116;53.112;7.356;2023-02-18T15:45:29;23.80;75.50
19908;DHT22;10116;53.112;7.356;2023-02-18T15:47:57;23.80;75.40
19908;DHT22;10116;53.112;7.356;2023-02-18T15:50:28;23.90;76.50
19908;DHT22;10116;53.112;7.356;2023-02-18T15:52:58;23.90;78.10
19908;DHT22;10116;53.112;7.356;2023-02-18T15:55:42;23.90;76.30
19908;DHT22;10116;53.112;7.356;2023-02-18T15:58:18;23.90;76.30
19908;DHT22;10116;53.112;7.356;2023-02-18T16:00:54;23.90;77.20
19908;DHT22;10116;53.112;7.356;2023-02-18T16:03:26;23.90;76.30
19908;DHT22;10116;53.112;7.356;2023-02-18T16:08:54;23.90;75.90
19908;DHT22;10116;53.112;7.356;2023-02-18T16:11:23;23.90;77.20
19908;DHT22;10116;53.112;7.356;2023-02-18T16:13:50;23.90;75.70
19908;DHT22;10116;53.112;7.356;2023-02-18T16:16:28;23.90;75.50
19908;DHT22;10116;53.112;7.356;2023-02-18T16:18:55;23.90;75.60
19908;DHT22;10116;53.112;7.356;2023-02-18T16:21:31;23.90;75.70
19908;DHT22;10116;53.112;7.356;2023-02-18T16:24:02;23.90;75.80
19908;DHT22;10116;53.112;7.356;2023-02-18T16:26:40;23.90;75.50
19908;DHT22;10116;53.112;7.356;2023-02-18T16:29:22;23.90;76.90
19908;DHT22;10116;53.112;7.356;2023-02-18T16:31:48;23.90;76.80
19908;DHT22;10116;53.112;7.356;2023-02-18T16:34:14;24.00;76.10
19908;DHT22;10116;53.112;7.356;2023-02-18T16:36:40;23.90;76.00
19908;DHT22;10116;53.112;7.356;2023-02-18T16:39:27;23.90;75.60
19908;DHT22;10116;53.112;7.356;2023-02-18T16:41:53;24.00;75.70
19908;DHT22;10116;53.112;7.356;2023-02-18T16:44:19;23.90;75.70
19908;DHT22;10116;53.112;7.356;2023-02-18T16:46:45;24.00;76.40
19908;DHT22;10116;53.112;7.356;2023-02-18T16:49:12;23.90;78.70
19908;DHT22;10116;53.112;7.356;2023-02-18T16:51:39;24.00;76.10
19908;DHT22;10116;53.112;7.356;2023-02-18T16:54:05;23.90;75.70
19908;DHT22;10116;53.112;7.356;2023-02-18T16:56:32;23.90;76.70
19908;DHT22;10116;53.112;7.356;2023-02-18T16:58:59;24.00;76.90
19908;DHT22;10116;53.112;7.356;2023-02-18T17:01:26;24.00;77.80
19908;DHT22;10116;53.112;7.356;2023-02-18T17:03:53;24.00;78.40
19908;DHT22;10116;53.112;7.356;2023-02-18T17:06:19;24.10;77.60
19908;DHT22;10116;53.112;7.356;2023-02-18T17:08:45;24.10;79.30
19908;DHT22;10116;53.112;7.356;2023-02-18T17:11:33;24.10;93.30
19908;DHT22;10116;53.112;7.356;2023-02-18T17:14:00;24.10;78.70
19908;DHT22;10116;53.112;7.356;2023-02-18T17:16:29;24.10;79.90
19908;DHT22;10116;53.112;7.356;2023-02-18T17:18:55;24.10;78.90
19908;DHT22;10116;53.112;7.356;2023-02-18T17:21:23;24.10;79.10
19908;DHT22;10116;53.112;7.356;2023-02-18T17:23:50;24.10;79.70
19908;DHT22;10116;53.112;7.356;2023-02-18T17:26:25;24.10;79.20
19908;DHT22;10116;53.112;7.356;2023-02-18T17:28:53;24.10;78.90
19908;DHT22;10116;53.112;7.356;2023-02-18T17:33:52;24.10;78.60
19908;DHT22;10116;53.112;7.356;2023-02-18T17:36:17;24.10;78.10
19908;DHT22;10116;53.112;7.356;2023-02-18T17:38:43;24.00;78.30
19908;DHT22;10116;53.112;7.356;2023-02-18T17:41:11;24.10;77.50
19908;DHT22;10116;53.112;7.356;2023-02-18T17:43:38;24.10;78.80
19908;DHT22;10116;53.112;7.356;2023-02-18T17:46:05;24.00;77.60
19908;DHT22;10116;53.112;7.356;2023-02-18T17:48:31;24.00;77.20
19908;DHT22;10116;53.112;7.356;2023-02-18T17:50:56;24.00;77.00
19908;DHT22;10116;53.112;7.356;2023-02-18T17:53:23;24.00;76.90
19908;DHT22;10116;53.112;7.356;2023-02-18T17:55:49;24.00;77.20
19908;DHT22;10116;53.112;7.356;2023-02-18T17:58:15;24.00;77.30
19908;DHT22;10116;53.112;7.356;2023-02-18T18:00:44;24.10;78.70
19908;DHT22;10116;53.112;7.356;2023-02-18T18:03:12;24.10;78.90
19908;DHT22;10116;53.112;7.356;2023-02-18T18:05:39;24.10;77.60
19908;DHT22;10116;53.112;7.356;2023-02-18T18:08:06;24.10;78.30
19908;DHT22;10116;53.112;7.356;2023-02-18T18:10:35;24.10;78.60
19908;DHT22;10116;53.112;7.356;2023-02-18T18:13:03;24.10;78.00
19908;DHT22;10116;53.112;7.356;2023-02-18T18:15:34;24.20;78.60
19908;DHT22;10116;53.112;7.356;2023-02-18T18:18:01;24.10;79.10
19908;DHT22;10116;53.112;7.356;2023-02-18T18:20:28;24.20;79.10
19908;DHT22;10116;53.112;7.356;2023-02-18T18:22:55;24.20;80.40
19908;DHT22;10116;53.112;7.356;2023-02-18T18:25:25;24.20;79.80